Time;durP1;ratioP1;P1;durP2;ratioP2;P2;SDS_P1;SDS_P2;PMS_P1;PMS_P2;Temp;Humidity;BMP_temperature;BMP_pressure;BME280_temperature;BME280_humidity;BME280_pressure;Samples;Min_cycle;Max_cycle;Signal;HPM_P1;HPM_P2
2022/03/23 00:01:37;;;;;;;;;;;10.00;99.90;;;;;;5017475;28;19925;-79
2022/03/23 00:04:02;;;;;;;;;;;9.90;99.90;;;;;;5025821;28;19913;-81
2022/03/23 00:06:28;;;;;;;;;;;9.90;99.90;;;;;;5026072;28;19940;-80
2022/03/23 00:08:53;;;;;;;;;;;9.80;99.90;;;;;;5025259;28;19917;-80
2022/03/23 00:11:19;;;;;;;;;;;9.70;99.90;;;;;;5027466;28;19929;-81
2022/03/23 00:13:45;;;;;;;;;;;9.70;99.90;;;;;;5028383;28;19917;-80
2022/03/23 00:16:10;;;;;;;;;;;9.70;99.90;;;;;;5026171;28;19920;-80
2022/03/23 00:18:36;;;;;;;;;;;9.60;99.90;;;;;;5024539;28;19957;-80
2022/03/23 00:21:01;;;;;;;;;;;9.60;99.90;;;;;;5026299;28;19914;-80
2022/03/23 00:23:27;;;;;;;;;;;9.50;99.90;;;;;;5025733;28;20547;-79
2022/03/23 00:25:53;;;;;;;;;;;9.40;99.90;;;;;;5028458;28;19948;-81
2022/03/23 00:28:19;;;;;;;;;;;9.30;99.90;;;;;;5031067;28;19935;-79
2022/03/23 00:30:45;;;;;;;;;;;9.30;99.90;;;;;;5024536;28;19914;-79
2022/03/23 00:33:11;;;;;;;;;;;9.20;99.90;;;;;;5026175;28;19924;-81
2022/03/23 00:35:36;;;;;;;;;;;9.10;99.90;;;;;;5024199;28;20398;-79
2022/03/23 00:38:02;;;;;;;;;;;9.10;99.90;;;;;;5025924;28;19917;-80
2022/03/23 00:40:28;;;;;;;;;;;9.00;99.90;;;;;;5026375;28;19921;-80
2022/03/23 00:42:54;;;;;;;;;;;9.00;99.90;;;;;;5025721;28;20381;-81
2022/03/23 00:45:20;;;;;;;;;;;8.90;99.90;;;;;;5026813;28;19914;-80
2022/03/23 00:47:46;;;;;;;;;;;8.90;99.90;;;;;;5027545;28;20000;-81
2022/03/23 00:50:12;;;;;;;;;;;8.80;99.90;;;;;;5021990;28;20365;-81
2022/03/23 00:52:37;;;;;;;;;;;8.80;99.90;;;;;;5027318;28;19984;-81
2022/03/23 00:55:03;;;;;;;;;;;8.80;99.90;;;;;;5026362;28;20474;-79
2022/03/23 00:57:29;;;;;;;;;;;8.70;99.90;;;;;;5032321;28;19913;-80
2022/03/23 00:59:54;;;;;;;;;;;8.60;99.90;;;;;;5021574;28;19971;-79
2022/03/23 01:02:20;;;;;;;;;;;8.50;99.90;;;;;;5025902;28;19917;-80
2022/03/23 01:04:45;;;;;;;;;;;8.30;99.90;;;;;;5023566;28;19921;-78
2022/03/23 01:07:11;;;;;;;;;;;8.20;99.90;;;;;;5020185;28;19949;-77
2022/03/23 01:09:36;;;;;;;;;;;8.10;99.90;;;;;;5025705;28;19925;-79
2022/03/23 01:12:02;;;;;;;;;;;8.10;99.90;;;;;;5030344;28;19970;-78
2022/03/23 01:14:27;;;;;;;;;;;8.10;99.90;;;;;;5031560;28;20292;-79
2022/03/23 01:16:53;;;;;;;;;;;8.10;99.90;;;;;;5025664;28;19917;-80
2022/03/23 01:19:22;;;;;;;;;;;8.10;99.90;;;;;;5016692;28;20160;-79
2022/03/23 01:21:47;;;;;;;;;;;8.20;99.90;;;;;;5018689;28;19913;-79
2022/03/23 01:24:13;;;;;;;;;;;8.20;99.90;;;;;;5023170;28;19921;-78
2022/03/23 01:26:38;;;;;;;;;;;8.20;99.90;;;;;;5027412;28;19953;-78
2022/03/23 01:29:04;;;;;;;;;;;8.10;99.90;;;;;;5030389;28;19913;-79
2022/03/23 01:31:30;;;;;;;;;;;8.10;99.90;;;;;;5032605;28;19917;-78
2022/03/23 01:33:59;;;;;;;;;;;8.00;99.90;;;;;;5018711;28;19921;-79
2022/03/23 01:36:29;;;;;;;;;;;7.90;99.90;;;;;;5022720;28;19921;-80
2022/03/23 01:38:55;;;;;;;;;;;7.90;99.90;;;;;;5024772;28;19943;-81
2022/03/23 01:41:20;;;;;;;;;;;7.90;99.90;;;;;;5023329;28;19914;-81
2022/03/23 01:43:46;;;;;;;;;;;7.90;99.90;;;;;;5023088;28;19987;-79
2022/03/23 01:46:12;;;;;;;;;;;7.90;99.90;;;;;;5023369;28;20008;-80
2022/03/23 01:48:37;;;;;;;;;;;7.90;99.90;;;;;;5021712;28;19960;-79
2022/03/23 01:51:03;;;;;;;;;;;7.90;99.90;;;;;;5023436;28;19913;-80
2022/03/23 01:53:29;;;;;;;;;;;7.80;99.90;;;;;;5022066;28;19987;-79
2022/03/23 01:55:54;;;;;;;;;;;7.80;99.90;;;;;;5025600;28;19983;-78
2022/03/23 01:58:22;;;;;;;;;;;7.80;99.90;;;;;;5020140;28;20382;-79
2022/03/23 02:00:48;;;;;;;;;;;7.80;99.90;;;;;;5018742;28;19965;-79
2022/03/23 02:03:13;;;;;;;;;;;7.80;99.90;;;;;;5030594;28;19944;-79
2022/03/23 02:05:39;;;;;;;;;;;7.80;99.90;;;;;;5033360;28;19921;-79
2022/03/23 02:08:05;;;;;;;;;;;7.70;99.90;;;;;;5032905;28;19913;-79
2022/03/23 02:10:31;;;;;;;;;;;7.60;99.90;;;;;;5032731;28;19913;-80
2022/03/23 02:12:56;;;;;;;;;;;7.60;99.90;;;;;;5031142;28;19936;-79
2022/03/23 02:15:24;;;;;;;;;;;7.60;99.90;;;;;;5033100;28;19967;-78
2022/03/23 02:17:53;;;;;;;;;;;7.50;99.90;;;;;;5033010;28;19917;-79
2022/03/23 02:20:19;;;;;;;;;;;7.50;99.90;;;;;;5027088;28;19963;-79
2022/03/23 02:22:44;;;;;;;;;;;7.50;99.90;;;;;;5029618;28;19913;-81
2022/03/23 02:25:10;;;;;;;;;;;7.50;99.90;;;;;;5032622;28;19980;-78
2022/03/23 02:27:40;;;;;;;;;;;7.40;99.90;;;;;;5030658;28;19917;-78
2022/03/23 02:30:07;;;;;;;;;;;7.40;99.90;;;;;;5031001;28;19914;-79
2022/03/23 02:32:32;;;;;;;;;;;7.30;99.90;;;;;;5028172;28;19940;-78
2022/03/23 02:34:58;;;;;;;;;;;7.30;99.90;;;;;;5029757;28;19921;-79
2022/03/23 02:37:24;;;;;;;;;;;7.20;99.90;;;;;;5031740;28;19913;-78
2022/03/23 02:39:49;;;;;;;;;;;7.10;99.90;;;;;;5031169;28;19913;-79
2022/03/23 02:42:15;;;;;;;;;;;7.10;99.90;;;;;;5029316;28;19962;-79
2022/03/23 02:44:40;;;;;;;;;;;7.10;99.90;;;;;;5027621;28;20129;-79
2022/03/23 02:47:07;;;;;;;;;;;7.10;99.90;;;;;;5028928;28;19917;-78
2022/03/23 02:49:33;;;;;;;;;;;7.10;99.90;;;;;;5031689;28;19913;-78
2022/03/23 02:51:58;;;;;;;;;;;7.10;99.90;;;;;;5028245;28;19925;-78
2022/03/23 03:03:06;;;;;;;;;;;7.10;99.90;;;;;;5027342;28;19960;-79
2022/03/23 03:05:32;;;;;;;;;;;7.00;99.90;;;;;;5030797;28;20383;-80
2022/03/23 03:10:41;;;;;;;;;;;7.00;99.90;;;;;;5032633;28;19940;-81
2022/03/23 03:13:07;;;;;;;;;;;6.90;99.90;;;;;;5030516;28;19921;-80
2022/03/23 03:15:34;;;;;;;;;;;6.90;99.90;;;;;;5033506;28;20358;-81
2022/03/23 03:18:00;;;;;;;;;;;6.80;99.90;;;;;;5031355;28;19951;-80
2022/03/23 03:20:26;;;;;;;;;;;6.80;99.90;;;;;;5031812;28;19913;-79
2022/03/23 03:22:52;;;;;;;;;;;6.80;99.90;;;;;;5030761;28;20281;-81
2022/03/23 03:25:20;;;;;;;;;;;6.80;99.90;;;;;;5032056;28;19917;-78
2022/03/23 03:27:46;;;;;;;;;;;6.70;99.90;;;;;;5030464;28;19923;-79
2022/03/23 03:30:12;;;;;;;;;;;6.60;99.90;;;;;;5030380;28;19913;-80
2022/03/23 03:32:38;;;;;;;;;;;6.60;99.90;;;;;;5028405;28;19927;-79
2022/03/23 03:35:04;;;;;;;;;;;6.50;99.90;;;;;;5031574;28;20348;-81
2022/03/23 03:37:30;;;;;;;;;;;6.50;99.90;;;;;;5030663;28;19939;-78
2022/03/23 03:39:55;;;;;;;;;;;6.50;99.90;;;;;;5032470;28;19913;-79
2022/03/23 03:42:20;;;;;;;;;;;6.50;99.90;;;;;;5034528;28;20082;-79
2022/03/23 03:44:50;;;;;;;;;;;6.50;99.90;;;;;;5034889;28;19917;-79
2022/03/23 03:47:16;;;;;;;;;;;6.40;99.90;;;;;;5033830;28;20357;-79
2022/03/23 03:49:41;;;;;;;;;;;6.50;99.90;;;;;;5034132;28;19921;-81
2022/03/23 03:52:07;;;;;;;;;;;6.50;99.90;;;;;;5048859;28;19917;-79
2022/03/23 03:54:32;;;;;;;;;;;6.50;99.90;;;;;;5034336;28;19913;-78
2022/03/23 03:56:58;;;;;;;;;;;6.50;99.90;;;;;;5032489;28;19955;-78
2022/03/23 03:59:23;;;;;;;;;;;6.50;99.90;;;;;;5032777;28;19913;-79
2022/03/23 04:01:49;;;;;;;;;;;6.50;99.90;;;;;;5032450;28;19919;-78
2022/03/23 04:04:15;;;;;;;;;;;6.40;99.90;;;;;;5033253;28;19957;-79
2022/03/23 04:06:41;;;;;;;;;;;6.40;99.90;;;;;;5032865;28;19913;-81
2022/03/23 04:09:06;;;;;;;;;;;6.40;99.90;;;;;;5028590;28;20476;-78
2022/03/23 04:11:32;;;;;;;;;;;6.40;99.90;;;;;;5034591;28;19913;-78
2022/03/23 04:13:57;;;;;;;;;;;6.30;99.90;;;;;;5030217;28;19913;-78
2022/03/23 04:16:23;;;;;;;;;;;6.30;99.90;;;;;;5032297;28;19924;-78
2022/03/23 04:18:48;;;;;;;;;;;6.30;99.90;;;;;;5032815;28;19917;-79
2022/03/23 04:21:13;;;;;;;;;;;6.20;99.90;;;;;;5029753;28;19928;-78
2022/03/23 04:23:39;;;;;;;;;;;6.10;99.90;;;;;;5032113;28;19945;-79
2022/03/23 04:26:04;;;;;;;;;;;6.10;99.90;;;;;;5057948;22;19955;-81
2022/03/23 04:28:30;;;;;;;;;;;6.10;99.90;;;;;;5075534;28;19913;-81
2022/03/23 04:30:56;;;;;;;;;;;6.00;99.90;;;;;;5074129;28;20019;-81
2022/03/23 04:33:21;;;;;;;;;;;6.00;99.90;;;;;;5074418;28;19943;-81
2022/03/23 04:35:47;;;;;;;;;;;6.00;99.90;;;;;;5069909;28;19913;-81
2022/03/23 04:38:13;;;;;;;;;;;5.90;99.90;;;;;;5055817;28;19984;-82
2022/03/23 04:40:38;;;;;;;;;;;5.90;99.90;;;;;;5055195;28;19919;-82
2022/03/23 04:43:04;;;;;;;;;;;5.80;99.90;;;;;;5052287;28;19968;-81
2022/03/23 04:45:29;;;;;;;;;;;5.80;99.90;;;;;;5055030;28;19912;-81
2022/03/23 04:47:55;;;;;;;;;;;5.80;99.90;;;;;;5056358;28;19927;-81
2022/03/23 04:50:20;;;;;;;;;;;5.80;99.90;;;;;;5054087;28;19935;-81
2022/03/23 04:52:47;;;;;;;;;;;5.80;99.90;;;;;;5051234;28;19920;-81
2022/03/23 04:55:13;;;;;;;;;;;5.80;99.90;;;;;;5053942;28;20432;-80
2022/03/23 04:57:39;;;;;;;;;;;5.80;99.90;;;;;;5056609;28;20386;-80
2022/03/23 05:00:10;;;;;;;;;;;5.70;99.90;;;;;;5054079;28;19913;-80
2022/03/23 05:02:37;;;;;;;;;;;5.70;99.90;;;;;;5053961;28;20052;-81
2022/03/23 05:05:03;;;;;;;;;;;5.70;99.90;;;;;;5053712;28;19912;-80
2022/03/23 05:07:28;;;;;;;;;;;5.70;99.90;;;;;;5053355;28;19912;-81
2022/03/23 05:09:54;;;;;;;;;;;5.70;99.90;;;;;;5056255;28;20004;-81
2022/03/23 05:12:19;;;;;;;;;;;5.60;99.90;;;;;;5055372;28;20550;-80
2022/03/23 05:14:45;;;;;;;;;;;5.60;99.90;;;;;;5055834;28;19913;-81
2022/03/23 05:17:10;;;;;;;;;;;5.60;99.90;;;;;;5054018;28;20333;-82
2022/03/23 05:19:36;;;;;;;;;;;5.60;99.90;;;;;;5053932;28;19917;-80
2022/03/23 05:22:01;;;;;;;;;;;5.60;99.90;;;;;;5055141;28;19917;-80
2022/03/23 05:24:28;;;;;;;;;;;5.60;99.90;;;;;;5053544;28;19947;-80
2022/03/23 05:26:53;;;;;;;;;;;5.60;99.90;;;;;;5052692;28;20297;-81
2022/03/23 05:29:19;;;;;;;;;;;5.60;99.90;;;;;;5054388;28;19913;-82
2022/03/23 05:31:44;;;;;;;;;;;5.60;99.90;;;;;;5054654;28;19920;-81
2022/03/23 05:34:10;;;;;;;;;;;5.60;99.90;;;;;;5054404;28;19983;-81
2022/03/23 05:36:35;;;;;;;;;;;5.70;99.90;;;;;;5054657;28;19913;-80
2022/03/23 05:39:01;;;;;;;;;;;5.70;99.90;;;;;;5052957;28;20364;-81
2022/03/23 05:41:26;;;;;;;;;;;5.70;99.90;;;;;;5056139;28;19913;-81
2022/03/23 05:43:52;;;;;;;;;;;5.80;99.90;;;;;;5053217;28;19917;-82
2022/03/23 05:46:17;;;;;;;;;;;5.90;99.90;;;;;;5070271;28;19913;-80
2022/03/23 05:48:43;;;;;;;;;;;5.90;99.90;;;;;;5054459;28;19920;-81
2022/03/23 05:51:09;;;;;;;;;;;6.00;99.90;;;;;;5053142;28;20804;-80
2022/03/23 05:53:36;;;;;;;;;;;6.30;99.90;;;;;;5054768;28;19948;-81
2022/03/23 05:56:04;;;;;;;;;;;6.40;99.90;;;;;;5053262;28;19962;-81
2022/03/23 05:58:30;;;;;;;;;;;6.60;99.90;;;;;;5055212;28;19917;-81
2022/03/23 06:00:56;;;;;;;;;;;6.80;99.90;;;;;;5055493;28;19951;-81
2022/03/23 06:03:21;;;;;;;;;;;7.00;99.90;;;;;;5053703;28;19912;-82
2022/03/23 06:05:47;;;;;;;;;;;7.40;99.90;;;;;;5056338;28;20014;-82
2022/03/23 06:08:12;;;;;;;;;;;9.10;99.90;;;;;;5052477;28;20289;-82
2022/03/23 06:10:38;;;;;;;;;;;11.20;99.90;;;;;;5056038;28;19974;-82
2022/03/23 06:13:04;;;;;;;;;;;13.10;99.90;;;;;;5052021;28;19927;-82
2022/03/23 06:15:29;;;;;;;;;;;14.80;99.90;;;;;;5054976;28;20396;-82
2022/03/23 06:17:55;;;;;;;;;;;16.30;99.90;;;;;;5055239;28;20003;-82
2022/03/23 06:20:20;;;;;;;;;;;17.70;99.90;;;;;;5055613;28;19913;-82
2022/03/23 06:22:46;;;;;;;;;;;19.10;99.90;;;;;;5054661;28;19932;-82
2022/03/23 06:25:11;;;;;;;;;;;20.30;99.90;;;;;;5051335;28;19927;-82
2022/03/23 06:27:37;;;;;;;;;;;21.40;99.90;;;;;;5053845;28;20285;-81
2022/03/23 06:30:03;;;;;;;;;;;22.40;99.90;;;;;;5056055;28;19999;-82
2022/03/23 06:32:28;;;;;;;;;;;23.40;99.90;;;;;;5053790;28;19917;-80
2022/03/23 06:34:54;;;;;;;;;;;24.10;99.90;;;;;;5052830;28;19943;-80
2022/03/23 06:37:19;;;;;;;;;;;24.60;99.90;;;;;;5051097;28;19913;-79
2022/03/23 06:39:45;;;;;;;;;;;25.40;99.90;;;;;;5051887;28;19924;-79
2022/03/23 06:42:10;;;;;;;;;;;25.10;99.90;;;;;;5050765;28;19917;-78
2022/03/23 06:44:38;;;;;;;;;;;25.80;99.90;;;;;;5051310;28;20308;-80
2022/03/23 06:47:03;;;;;;;;;;;26.90;99.90;;;;;;5048888;28;19912;-79
2022/03/23 06:49:29;;;;;;;;;;;27.70;99.90;;;;;;5032586;28;19924;-79
2022/03/23 06:51:54;;;;;;;;;;;28.50;99.90;;;;;;5049812;28;20356;-79
2022/03/23 06:54:20;;;;;;;;;;;29.40;99.90;;;;;;5048374;28;19920;-79
2022/03/23 06:56:50;;;;;;;;;;;30.40;99.90;;;;;;5051891;28;19916;-79
2022/03/23 06:59:16;;;;;;;;;;;31.00;99.90;;;;;;5049529;28;19927;-79
2022/03/23 07:01:41;;;;;;;;;;;31.50;99.90;;;;;;5049655;28;20172;-79
2022/03/23 07:04:06;;;;;;;;;;;32.40;99.90;;;;;;5049031;28;19920;-80
2022/03/23 07:06:32;;;;;;;;;;;33.10;99.90;;;;;;5049218;28;19919;-79
2022/03/23 07:11:41;;;;;;;;;;;33.90;99.90;;;;;;5051114;28;20437;-80
2022/03/23 07:14:07;;;;;;;;;;;34.50;99.90;;;;;;5052277;28;19952;-79
2022/03/23 07:16:32;;;;;;;;;;;35.00;99.90;;;;;;5052556;28;20009;-79
2022/03/23 07:18:58;;;;;;;;;;;35.50;99.90;;;;;;5052329;28;19913;-80
2022/03/23 07:21:23;;;;;;;;;;;36.00;99.90;;;;;;5054715;28;19994;-79
2022/03/23 07:23:49;;;;;;;;;;;36.20;99.90;;;;;;5054600;28;19923;-80
2022/03/23 07:26:15;;;;;;;;;;;36.30;99.90;;;;;;5071027;28;19931;-80
2022/03/23 07:28:40;;;;;;;;;;;36.60;99.90;;;;;;5057363;28;19917;-81
2022/03/23 07:31:06;;;;;;;;;;;36.50;99.90;;;;;;5056696;28;20289;-80
2022/03/23 07:33:31;;;;;;;;;;;36.50;99.90;;;;;;5057020;28;20375;-80
2022/03/23 07:35:57;;;;;;;;;;;36.20;99.90;;;;;;5053579;28;19956;-81
2022/03/23 07:38:22;;;;;;;;;;;36.80;99.90;;;;;;5053494;28;19913;-80
2022/03/23 07:40:48;;;;;;;;;;;36.60;99.90;;;;;;5054769;28;20325;-80
2022/03/23 07:43:14;;;;;;;;;;;37.20;99.90;;;;;;5047415;28;19921;-80
2022/03/23 07:45:39;;;;;;;;;;;36.90;99.90;;;;;;5055408;28;19928;-80
2022/03/23 07:48:05;;;;;;;;;;;36.90;99.90;;;;;;5054695;28;19956;-80
2022/03/23 07:50:30;;;;;;;;;;;37.70;99.90;;;;;;5053649;28;20298;-80
2022/03/23 07:52:56;;;;;;;;;;;38.20;99.90;;;;;;5053651;28;19920;-80
2022/03/23 07:55:21;;;;;;;;;;;38.10;99.90;;;;;;5052567;28;19961;-79
2022/03/23 07:57:47;;;;;;;;;;;38.60;99.90;;;;;;5049642;28;19982;-80
2022/03/23 08:00:13;;;;;;;;;;;38.70;99.90;;;;;;5051922;28;19989;-79
2022/03/23 08:02:39;;;;;;;;;;;38.80;99.90;;;;;;5052355;28;20518;-80
2022/03/23 08:05:05;;;;;;;;;;;38.60;99.90;;;;;;5049973;28;19913;-79
2022/03/23 08:07:30;;;;;;;;;;;38.60;99.90;;;;;;5053490;28;19913;-79
2022/03/23 08:09:56;;;;;;;;;;;38.70;99.90;;;;;;5055531;28;20020;-79
2022/03/23 08:12:21;;;;;;;;;;;39.10;99.90;;;;;;5049558;28;19913;-80
2022/03/23 08:14:47;;;;;;;;;;;39.00;99.90;;;;;;5049348;28;19913;-79
2022/03/23 08:17:12;;;;;;;;;;;39.00;99.90;;;;;;5053765;28;19917;-80
2022/03/23 08:19:38;;;;;;;;;;;39.60;99.90;;;;;;5051214;28;19909;-81
2022/03/23 08:22:04;;;;;;;;;;;39.60;99.90;;;;;;5053810;28;19913;-80
2022/03/23 08:24:29;;;;;;;;;;;40.00;99.90;;;;;;5032506;28;19951;-80
2022/03/23 08:26:54;;;;;;;;;;;40.50;99.90;;;;;;5052993;28;19927;-80
2022/03/23 08:29:20;;;;;;;;;;;41.10;99.90;;;;;;5057260;28;19909;-80
2022/03/23 08:31:46;;;;;;;;;;;41.50;99.90;;;;;;5062376;28;19921;-80
2022/03/23 08:34:12;;;;;;;;;;;41.60;99.90;;;;;;5050384;28;20277;-80
2022/03/23 08:36:38;;;;;;;;;;;41.70;99.90;;;;;;5054271;28;19913;-79
2022/03/23 08:39:04;;;;;;;;;;;41.90;99.90;;;;;;5052922;28;19913;-80
2022/03/23 08:41:29;;;;;;;;;;;41.80;99.90;;;;;;5052307;28;19912;-80
2022/03/23 08:43:55;;;;;;;;;;;41.50;99.90;;;;;;5053158;28;19967;-79
2022/03/23 08:46:21;;;;;;;;;;;41.70;99.90;;;;;;5052191;28;19917;-80
2022/03/23 08:48:46;;;;;;;;;;;41.90;99.90;;;;;;5052986;28;19920;-80
2022/03/23 08:51:12;;;;;;;;;;;41.70;99.90;;;;;;5050668;28;19921;-80
2022/03/23 08:53:38;;;;;;;;;;;42.20;99.90;;;;;;5054589;28;19929;-80
2022/03/23 08:56:04;;;;;;;;;;;42.00;99.90;;;;;;5054737;28;19913;-80
2022/03/23 08:58:30;;;;;;;;;;;42.20;99.90;;;;;;5052619;28;19920;-80
2022/03/23 09:00:55;;;;;;;;;;;42.10;99.90;;;;;;5053596;28;19916;-80
2022/03/23 09:03:21;;;;;;;;;;;42.00;99.90;;;;;;5046032;28;19925;-79
2022/03/23 09:05:48;;;;;;;;;;;42.00;99.90;;;;;;5046389;28;19913;-80
2022/03/23 09:08:14;;;;;;;;;;;42.30;99.90;;;;;;5048921;28;20392;-79
2022/03/23 09:10:39;;;;;;;;;;;42.20;99.90;;;;;;5044512;28;19917;-80
2022/03/23 09:13:05;;;;;;;;;;;42.10;99.90;;;;;;5049259;28;19951;-80
2022/03/23 09:15:30;;;;;;;;;;;42.10;99.90;;;;;;5045411;28;19913;-79
2022/03/23 09:17:59;;;;;;;;;;;42.30;99.90;;;;;;5053478;28;19913;-79
2022/03/23 09:20:28;;;;;;;;;;;42.60;99.90;;;;;;5052201;28;20024;-80
2022/03/23 09:22:54;;;;;;;;;;;42.80;99.90;;;;;;5050765;28;19924;-80
2022/03/23 09:25:22;;;;;;;;;;;43.00;99.90;;;;;;5050366;28;19999;-79
2022/03/23 09:27:48;;;;;;;;;;;43.00;99.90;;;;;;5053574;28;20382;-79
2022/03/23 09:30:14;;;;;;;;;;;43.10;99.90;;;;;;5050827;28;19939;-80
2022/03/23 09:32:39;;;;;;;;;;;42.60;99.90;;;;;;5048958;28;19916;-80
2022/03/23 09:35:06;;;;;;;;;;;41.90;99.90;;;;;;5053984;28;20377;-80
2022/03/23 09:37:49;;;;;;;;;;;42.00;99.90;;;;;;5048778;28;20332;-80
2022/03/23 09:40:16;;;;;;;;;;;42.00;99.90;;;;;;5053351;28;19913;-80
2022/03/23 09:42:43;;;;;;;;;;;41.80;99.90;;;;;;5053956;28;20297;-79
2022/03/23 09:45:11;;;;;;;;;;;41.30;99.90;;;;;;5065593;28;19914;-79
2022/03/23 09:47:37;;;;;;;;;;;41.20;99.90;;;;;;5053455;28;20094;-78
2022/03/23 09:50:02;;;;;;;;;;;40.30;99.90;;;;;;5049374;28;19913;-79
2022/03/23 09:52:28;;;;;;;;;;;40.50;99.90;;;;;;5050612;28;20015;-79
2022/03/23 09:54:53;;;;;;;;;;;40.40;99.90;;;;;;5046851;28;20020;-79
2022/03/23 09:57:19;;;;;;;;;;;40.90;99.90;;;;;;5046595;28;19939;-79
2022/03/23 09:59:44;;;;;;;;;;;41.10;99.90;;;;;;5053735;28;19948;-79
2022/03/23 10:02:12;;;;;;;;;;;41.30;99.90;;;;;;5042951;28;19917;-79
2022/03/23 10:04:49;;;;;;;;;;;40.50;99.90;;;;;;5047067;28;20413;-79
2022/03/23 10:07:34;;;;;;;;;;;40.40;99.90;;;;;;5041492;28;19980;-79
2022/03/23 10:10:17;;;;;;;;;;;40.90;99.90;;;;;;5048340;28;19996;-79
2022/03/23 10:13:01;;;;;;;;;;;40.70;99.90;;;;;;5049983;28;19966;-79
2022/03/23 10:15:46;;;;;;;;;;;40.50;99.90;;;;;;5048301;28;19909;-79
2022/03/23 10:18:17;;;;;;;;;;;40.50;99.90;;;;;;5048214;28;19920;-78
2022/03/23 10:20:42;;;;;;;;;;;40.90;99.90;;;;;;5047268;28;19917;-79
2022/03/23 10:23:08;;;;;;;;;;;41.00;99.90;;;;;;5049291;28;19967;-78
2022/03/23 10:25:33;;;;;;;;;;;41.20;99.90;;;;;;5049821;28;19999;-80
2022/03/23 10:27:59;;;;;;;;;;;41.20;99.90;;;;;;5058595;22;19968;-79
2022/03/23 10:30:34;;;;;;;;;;;40.90;99.90;;;;;;5051071;28;19927;-82
2022/03/23 10:33:00;;;;;;;;;;;40.40;99.90;;;;;;5019913;28;19921;-81
2022/03/23 10:35:34;;;;;;;;;;;40.30;99.90;;;;;;5036190;28;19978;-82
2022/03/23 10:38:08;;;;;;;;;;;40.40;99.90;;;;;;5038836;28;19987;-83
2022/03/23 10:40:34;;;;;;;;;;;40.40;99.90;;;;;;5032472;28;19920;-81
2022/03/23 10:42:59;;;;;;;;;;;40.20;99.90;;;;;;5033090;28;19929;-83
2022/03/23 10:45:25;;;;;;;;;;;39.80;99.90;;;;;;5029994;28;19920;-82
2022/03/23 10:47:50;;;;;;;;;;;40.40;99.90;;;;;;5036459;28;19928;-81
2022/03/23 10:50:20;;;;;;;;;;;40.90;99.90;;;;;;5018530;28;20407;-82
2022/03/23 10:53:06;;;;;;;;;;;41.30;99.90;;;;;;5016876;28;19917;-82
2022/03/23 10:55:32;;;;;;;;;;;41.30;99.90;;;;;;5035286;28;19913;-82
2022/03/23 10:58:01;;;;;;;;;;;41.50;99.90;;;;;;5012908;28;19921;-83
2022/03/23 11:00:34;;;;;;;;;;;41.70;99.90;;;;;;5017569;28;20571;-82
2022/03/23 11:03:00;;;;;;;;;;;41.90;99.90;;;;;;5025144;28;19997;-81
2022/03/23 11:05:28;;;;;;;;;;;41.60;99.90;;;;;;5031066;28;20487;-82
2022/03/23 11:08:05;;;;;;;;;;;41.30;99.90;;;;;;5046136;28;20019;-82
2022/03/23 11:16:06;;;;;;;;;;;41.20;99.90;;;;;;5043199;28;20303;-83
2022/03/23 11:18:32;;;;;;;;;;;41.10;99.90;;;;;;5043272;28;19913;-82
2022/03/23 11:20:57;;;;;;;;;;;40.90;99.90;;;;;;5038417;28;20419;-83
2022/03/23 11:23:23;;;;;;;;;;;40.60;99.90;;;;;;5037246;28;19939;-82
2022/03/23 11:25:50;;;;;;;;;;;40.30;99.90;;;;;;5039440;28;19913;-82
2022/03/23 11:28:15;;;;;;;;;;;40.30;99.90;;;;;;5038528;28;19990;-82
2022/03/23 11:30:45;;;;;;;;;;;40.50;99.90;;;;;;5033083;28;19914;-81
2022/03/23 11:33:11;;;;;;;;;;;40.40;99.90;;;;;;5025743;28;20301;-82
2022/03/23 11:35:48;;;;;;;;;;;39.90;99.90;;;;;;5033598;28;19944;-83
2022/03/23 11:38:18;;;;;;;;;;;39.90;99.90;;;;;;5037568;28;19992;-83
2022/03/23 11:40:44;;;;;;;;;;;40.10;99.90;;;;;;5039329;28;19914;-82
2022/03/23 11:43:13;;;;;;;;;;;40.10;99.90;;;;;;5014057;28;19917;-83
2022/03/23 11:45:39;;;;;;;;;;;39.90;99.90;;;;;;5030638;28;19918;-82
2022/03/23 11:48:13;;;;;;;;;;;39.80;99.90;;;;;;5034444;28;19913;-82
2022/03/23 11:50:45;;;;;;;;;;;39.70;99.90;;;;;;5015520;28;19920;-83
2022/03/23 11:53:25;;;;;;;;;;;39.40;99.90;;;;;;5035715;28;19920;-82
2022/03/23 11:55:52;;;;;;;;;;;39.50;99.90;;;;;;5030208;28;19964;-83
2022/03/23 11:58:21;;;;;;;;;;;39.50;99.90;;;;;;5034414;28;19959;-81
2022/03/23 12:00:50;;;;;;;;;;;39.40;99.90;;;;;;5034492;28;19913;-82
2022/03/23 12:03:35;;;;;;;;;;;39.10;99.90;;;;;;5020546;28;19927;-82
2022/03/23 12:06:06;;;;;;;;;;;39.20;99.90;;;;;;5039731;28;19972;-82
2022/03/23 12:08:51;;;;;;;;;;;38.90;99.90;;;;;;5025647;28;19948;-81
2022/03/23 12:11:29;;;;;;;;;;;38.90;99.90;;;;;;5038441;28;19973;-82
2022/03/23 12:13:56;;;;;;;;;;;38.60;99.90;;;;;;5037994;28;20293;-82
2022/03/23 12:16:41;;;;;;;;;;;38.50;99.90;;;;;;5044374;28;19917;-81
2022/03/23 12:19:07;;;;;;;;;;;38.00;99.90;;;;;;5030758;28;19955;-83
2022/03/23 12:21:43;;;;;;;;;;;37.80;99.90;;;;;;5049142;28;19944;-82
2022/03/23 12:24:25;;;;;;;;;;;37.90;99.90;;;;;;5048032;28;19936;-83
2022/03/23 12:26:52;;;;;;;;;;;37.50;99.90;;;;;;5043164;28;19913;-83
2022/03/23 12:29:25;;;;;;;;;;;37.60;99.90;;;;;;5025851;28;19917;-82
2022/03/23 12:32:02;;;;;;;;;;;37.30;99.90;;;;;;5042786;28;20490;-82
2022/03/23 12:34:27;;;;;;;;;;;37.10;99.90;;;;;;5043888;28;19976;-82
2022/03/23 12:36:56;;;;;;;;;;;37.20;99.90;;;;;;5042510;28;19917;-83
2022/03/23 12:39:23;;;;;;;;;;;36.90;99.90;;;;;;5045068;28;19940;-82
2022/03/23 12:41:49;;;;;;;;;;;36.90;99.90;;;;;;5020343;28;19923;-80
2022/03/23 12:44:14;;;;;;;;;;;36.40;99.90;;;;;;5030950;28;19960;-81
2022/03/23 12:46:45;;;;;;;;;;;36.00;99.90;;;;;;5020101;28;20543;-81
2022/03/23 13:00:25;;;;;;;;;;;34.70;99.90;;;;;;5043022;28;19932;-80
2022/03/23 13:03:06;;;;;;;;;;;34.40;99.90;;;;;;5041620;28;19935;-82
2022/03/23 13:05:37;;;;;;;;;;;34.50;99.90;;;;;;5034882;28;19914;-81
2022/03/23 13:08:26;;;;;;;;;;;34.70;99.90;;;;;;5032901;28;19999;-81
2022/03/23 13:10:58;;;;;;;;;;;34.60;99.90;;;;;;5015334;28;20286;-80
2022/03/23 13:13:24;;;;;;;;;;;34.10;99.90;;;;;;5028200;28;19914;-81
2022/03/23 13:15:49;;;;;;;;;;;34.00;99.90;;;;;;5026408;28;19932;-82
2022/03/23 13:18:15;;;;;;;;;;;34.40;99.90;;;;;;5020564;28;19919;-81
2022/03/23 13:20:49;;;;;;;;;;;34.50;99.90;;;;;;5016029;28;20433;-81
2022/03/23 13:23:17;;;;;;;;;;;34.20;99.90;;;;;;5018138;28;19917;-81
2022/03/23 13:25:47;;;;;;;;;;;33.50;99.90;;;;;;5025012;28;19914;-81
2022/03/23 13:28:13;;;;;;;;;;;33.30;99.90;;;;;;5016254;28;20769;-80
2022/03/23 13:30:40;;;;;;;;;;;33.30;99.90;;;;;;5034655;28;19938;-81
2022/03/23 13:33:14;;;;;;;;;;;33.40;99.90;;;;;;5011408;28;19921;-82
2022/03/23 13:35:44;;;;;;;;;;;33.30;99.90;;;;;;5024039;28;19936;-81
2022/03/23 13:38:09;;;;;;;;;;;33.30;99.90;;;;;;5032327;28;19921;-81
2022/03/23 13:43:22;;;;;;;;;;;33.10;99.90;;;;;;5031441;28;19939;-82
2022/03/23 13:45:48;;;;;;;;;;;32.60;99.90;;;;;;5025513;28;19953;-82
2022/03/23 13:48:14;;;;;;;;;;;32.40;99.90;;;;;;5030066;28;19917;-80
2022/03/23 13:50:44;;;;;;;;;;;32.40;99.90;;;;;;5015172;28;19913;-81
2022/03/23 13:53:10;;;;;;;;;;;32.30;99.90;;;;;;5011203;28;19924;-81
2022/03/23 13:55:35;;;;;;;;;;;31.90;99.90;;;;;;5026048;28;19949;-80
2022/03/23 13:58:01;;;;;;;;;;;31.80;99.90;;;;;;5033751;28;19913;-82
2022/03/23 14:00:28;;;;;;;;;;;31.60;99.90;;;;;;5026513;28;19920;-81
2022/03/23 14:02:54;;;;;;;;;;;31.30;99.90;;;;;;5032428;28;19956;-82
2022/03/23 14:05:20;;;;;;;;;;;30.80;99.90;;;;;;5024416;28;20397;-82
2022/03/23 14:07:46;;;;;;;;;;;30.50;99.90;;;;;;5029064;28;19920;-82
2022/03/23 14:10:11;;;;;;;;;;;30.40;99.90;;;;;;5036019;28;19913;-82
2022/03/23 14:12:37;;;;;;;;;;;30.40;99.90;;;;;;5043946;28;19909;-81
2022/03/23 14:15:02;;;;;;;;;;;29.90;99.90;;;;;;5036038;28;19921;-81
2022/03/23 14:17:31;;;;;;;;;;;29.50;99.90;;;;;;5036619;28;19914;-80
2022/03/23 14:19:58;;;;;;;;;;;29.20;99.90;;;;;;5016401;28;19944;-82
2022/03/23 14:22:25;;;;;;;;;;;29.00;99.90;;;;;;5032284;28;20395;-82
2022/03/23 14:24:51;;;;;;;;;;;28.30;99.90;;;;;;5029700;28;19920;-81
2022/03/23 14:27:24;;;;;;;;;;;27.80;99.90;;;;;;5040919;28;19917;-80
2022/03/23 14:30:06;;;;;;;;;;;27.80;99.90;;;;;;5039367;28;19917;-81
2022/03/23 14:32:34;;;;;;;;;;;27.70;99.90;;;;;;5029515;28;19921;-82
2022/03/23 14:35:00;;;;;;;;;;;27.70;99.90;;;;;;5023762;28;19909;-81
2022/03/23 14:37:33;;;;;;;;;;;27.90;99.90;;;;;;5032314;28;19927;-81
2022/03/23 14:40:01;;;;;;;;;;;28.00;99.90;;;;;;5044445;28;19909;-81
2022/03/23 14:42:31;;;;;;;;;;;28.00;99.90;;;;;;5039527;28;19917;-81
2022/03/23 14:44:59;;;;;;;;;;;27.80;99.90;;;;;;5025861;28;20366;-81
2022/03/23 14:47:43;;;;;;;;;;;27.60;99.90;;;;;;5036253;28;19913;-81
2022/03/23 14:50:09;;;;;;;;;;;27.50;99.90;;;;;;5041568;28;19914;-80
2022/03/23 14:52:35;;;;;;;;;;;27.40;99.90;;;;;;5022872;28;19921;-80
2022/03/23 14:55:01;;;;;;;;;;;27.20;99.90;;;;;;5019137;28;19917;-80
2022/03/23 14:57:26;;;;;;;;;;;27.30;99.90;;;;;;5015903;28;19940;-79